Steinkjer, Norge

14:50:CEST den 05. juli 2015 (GMT +0200)
Helgesmark/Byafossen | | Change Station
CLOSE
Current Station
Personlig værstasjon
Location: Steinkjer, NORD-TRNDELAG
Høyde over havet: 328 ft
Nearby Weather Stations

H.o.h 328 ft 64.03 °N, 11.55 °E | Updated 29 seconds ago

Clear
Klart
75.7 °F
Feels Like 77 °F
N
3.4
Vind Variabel Vind from Nord
Gusts 4.7 mph

I dag
High -- | Low -- °F
--% Chance of Precip.
I går
High -- | Low -- °F
Precip. -- tommer
3:02 AM 11:33 PM
Trekvart minkende, 85% visible
Lufttrykk 30.06 tommer
Sikt -9999.0 eng. mil
Skyet
Varmeindeks 77 °F
Duggpunkt 45 °F
Fuktighet 33%
Regn 0.00 tommer
Snødybde Not available.
UV 2.0 av 12
Pollen Not available.
Luftkvalitet Not available.
Flu Activity Not available.
METAR ENNM 051220Z 08004KT CAVOK 21/10 Q1018

More Conditions Fewer Conditions

Lufttrykk 30.06 tommer
Sikt -9999.0 eng. mil
Skyet
Varmeindeks 77 °F
Duggpunkt 45 °F
Fuktighet 33%
Regn 0.00 tommer
Snødybde Not available.
UV 2.0 av 12
Pollen Not available.
Luftkvalitet Not available.
Flu Activity Not available.
METAR ENNM 051220Z 08004KT CAVOK 21/10 Q1018

More Conditions Fewer Conditions

10-Day Weather Forecast

×

Almanac

Astronomi

Jul. 05, 2015 Oppgang Nedgang
Virkelig tid
Tussmørke
Nautisk skumring
Astronomisk skumring
Månen
Lengde av synlig lys
Dagens lengde
Tomorrow will be .
, % of the Moon is Illuminated

Dagens maks og min

Country Highs Country Lows

Community

WunderPhotos

Upload Photos

1,835,248 photos uploaded!

WunderBlogs® & News

Nearby

Luftkvalitet

  Luftkvalitet AQ Indeks Forurensing
Not available.

Snødybde

Stasjon Depth Høyde over havet

Earthquake Activity

By Distance Mag. Time & Date
Minimum magnitude displayed is 2.5.

Coastal Water Temperatures

Sted Temperatur

Stations

Nearby Weather Stations

Stasjonens lokasjon Temp. Nedkjølingseffekt Duggpunkt Fuktighet Vind Precip. H.o.h Oppdatert Type